WetterOnline ( https://www.wetteronline.de )

Wetter aktuell Trier

Aktuelles Wetter: Trier/Petrisberg (273m)

6-stündlich | Neueste Meldungen
Ortszeit Temperatur Wetter
Di, 23.04. 20:00 8.4° C bedeckt
Di, 23.04. 14:00 8.8° C leicht bewölkt
Di, 23.04. 8:00 0.4° C bedeckt
Di, 23.04. 2:00 0.4° C wolkenlos
Mo, 22.04. 20:00 6.4° C bewölkt
Mo, 22.04. 14:00 5.4° C leichter Regen
Mo, 22.04. 8:00 -0.3° C bedeckt
Mo, 22.04. 2:00 0.3° C wolkenlos
Ortszeit Temperatur Wetter
Mi, 24.04. 1:30 3.3° C bewölkt
Mi, 24.04. 1:20 3.3° C bewölkt
Mi, 24.04. 1:10 3.9° C wolkig
Mi, 24.04. 1:00 3.6° C leicht bewölkt
Mi, 24.04. 0:50 3.6° C leicht bewölkt
Mi, 24.04. 0:40 3.7° C wolkenlos
Mi, 24.04. 0:30 3.8° C wolkenlos
Mi, 24.04. 0:00 4.6° C leicht bewölkt
Di, 23.04. 23:30 5.7° C bewölkt
Di, 23.04. 23:00 6.0° C bedeckt
Di, 23.04. 22:30 6.0° C bedeckt
Ortszeit Relative Feuchte Sichtweite
Di, 23.04. 20:00 44% 45 km
Di, 23.04. 14:00 35% 45 km
Di, 23.04. 8:00 94% 7 km
Di, 23.04. 2:00 90% 35 km
Mo, 22.04. 20:00 57% 55 km
Mo, 22.04. 14:00 56% 50 km
Mo, 22.04. 8:00 91% 30 km
Mo, 22.04. 2:00 94% 30 km
Ortszeit Relative Feuchte Sichtweite
Mi, 24.04. 1:30 72% 40 km
Mi, 24.04. 1:20 72% -
Mi, 24.04. 1:10 69% -
Mi, 24.04. 1:00 70% 45 km
Mi, 24.04. 0:50 70% -
Mi, 24.04. 0:40 69% -
Mi, 24.04. 0:30 68% 35 km
Mi, 24.04. 0:00 64% 45 km
Di, 23.04. 23:30 58% 40 km
Di, 23.04. 23:00 58% 45 km
Di, 23.04. 22:30 59% 45 km
Ortszeit Niederschlagsmenge Niederschlagsart
Di, 23.04. 20:00 0.0 l/m2 in 12 Std. -
Di, 23.04. 14:00 0.0 l/m2 in 6 Std. -
Di, 23.04. 8:00 0.0 l/m2 in 12 Std. -
Di, 23.04. 2:00 0.0 l/m2 in 6 Std. -
Mo, 22.04. 20:00 0.1 l/m2 in 12 Std. Regen
Mo, 22.04. 14:00 0.1 l/m2 in 6 Std. Regen
Mo, 22.04. 8:00 0.1 l/m2 in 12 Std. -
Mo, 22.04. 2:00 0.1 l/m2 in 6 Std. Regen
Ortszeit Niederschlagsmenge Niederschlagsart
Mi, 24.04. 1:30 0.0 l/m2 in 30 Min -
Mi, 24.04. 1:20 keine Meldung -
Mi, 24.04. 1:10 keine Meldung -
Mi, 24.04. 1:00 0.0 l/m2 in 1 Std. -
Mi, 24.04. 0:50 keine Meldung -
Mi, 24.04. 0:40 keine Meldung -
Mi, 24.04. 0:30 0.0 l/m2 in 30 Min -
Mi, 24.04. 0:00 0.0 l/m2 in 1 Std. -
Di, 23.04. 23:30 0.0 l/m2 in 30 Min -
Di, 23.04. 23:00 0.0 l/m2 in 1 Std. -
Di, 23.04. 22:30 0.0 l/m2 in 30 Min -
Ortszeit Stärke Spitze Richtung
km/h Bft. km/h Grad Sektor
Di, 23.04. 20:00 9 2 30 320° NW
Di, 23.04. 14:00 11 2 32 40° NO
Di, 23.04. 8:00 7 2 22 50° NO
Di, 23.04. 2:00 9 2 24 30° NO
Mo, 22.04. 20:00 13 3 43 360° N
Mo, 22.04. 14:00 7 2 43 350° N
Mo, 22.04. 8:00 7 2 14 350° N
Mo, 22.04. 2:00 4 1 54 90° O
Ortszeit Stärke Spitze Richtung
km/h Bft. km/h Grad Sektor
Mi, 24.04. 1:30 6 1 11 220° SW
Mi, 24.04. 1:20 6 1 - 220° SW
Mi, 24.04. 1:10 6 1 - 230° SW
Mi, 24.04. 1:00 6 1 13 220° SW
Mi, 24.04. 0:50 6 1 - 220° SW
Mi, 24.04. 0:40 7 2 - 220° SW
Mi, 24.04. 0:30 6 1 13 200° S
Mi, 24.04. 0:00 6 1 19 280° W
Di, 23.04. 23:30 7 2 19 300° NW
Di, 23.04. 23:00 4 1 14 300° NW
Di, 23.04. 22:30 4 1 14 290° W
Ortszeit Untergrenze Bedeckung Gattung
total tief tief mittel hoch
Di, 23.04. 20:00 1800 m 8/8 8/8 - - -
Di, 23.04. 14:00 1800 m 4/8 4/8 - - -
Di, 23.04. 8:00 90 m 8/8 8/8 - - -
Di, 23.04. 2:00 - 0/8 0/8 - - -
Mo, 22.04. 20:00 1800 m 8/8 4/8 - - -
Mo, 22.04. 14:00 570 m 8/8 7/8 - - -
Mo, 22.04. 8:00 4800 m 8/8 8/8 - - -
Mo, 22.04. 2:00 - 0/8 0/8 - - -
Ortszeit Bedeckungsgrad in Achtel und Wolkenuntergrenze
Mi, 24.04. 1:30 7(1800m) 7(2400m)
Mi, 24.04. 1:20 7(1800m) 7(2400m)
Mi, 24.04. 1:10 6
Mi, 24.04. 1:00 2(2100m)
Mi, 24.04. 0:50 2(2100m)
Mi, 24.04. 0:40 keine Wolken
Mi, 24.04. 0:30 keine Wolken
Mi, 24.04. 0:00 1(1800m) 4(6600m)
Di, 23.04. 23:30 7(1800m) 7(6900m)
Di, 23.04. 23:00 8(1800m)
Di, 23.04. 22:30 8(1800m)
Ortszeit Luftdruck NN (hPa) Tendenz (hPa in 3 Std.)
Di, 23.04. 20:00 1016 - 0,6
Di, 23.04. 14:00 1019 - 1,6
Di, 23.04. 8:00 1022 + 0,2
Di, 23.04. 2:00 1022 - 0,4
Mo, 22.04. 20:00 1021 - 0,1
Mo, 22.04. 14:00 1023 - 1,0
Mo, 22.04. 8:00 1025 + 0,2
Mo, 22.04. 2:00 1026 + 0,2
Ortszeit Luftdruck NN (hPa) Tendenz (hPa in 3 Std.)
Mi, 24.04. 1:30 1016 - 1,1
Mi, 24.04. 1:20 1016 keine Meldung
Mi, 24.04. 1:10 1016 keine Meldung
Mi, 24.04. 1:00 1016 - 1,0
Mi, 24.04. 0:50 1016 keine Meldung
Mi, 24.04. 0:40 1016 keine Meldung
Mi, 24.04. 0:30 1016 - 0,8
Mi, 24.04. 0:00 1016 - 0,6
Di, 23.04. 23:30 1016 - 0,2
Di, 23.04. 23:00 1016 - 0,1
Di, 23.04. 22:30 1016 - 0,1
Ortszeit Schneehöhe (cm)
Di, 23.04. 20:00 0
Di, 23.04. 14:00 0
Di, 23.04. 8:00 0
Di, 23.04. 2:00 0
Mo, 22.04. 20:00 0
Mo, 22.04. 14:00 0
Mo, 22.04. 8:00 0
Mo, 22.04. 2:00 0
Ortszeit Schneehöhe (cm)
Mi, 24.04. 1:30 0
Mi, 24.04. 1:20 0
Mi, 24.04. 1:10 -
Mi, 24.04. 1:00 0
Mi, 24.04. 0:50 0
Mi, 24.04. 0:40 -
Mi, 24.04. 0:30 0
Mi, 24.04. 0:00 0
Di, 23.04. 23:30 0
Di, 23.04. 23:00 0
Di, 23.04. 22:30 0
Link zu dieser Seite / Seite empfehlen

Das Wetter in ...